Kerrick, Texas
Current Conditions -  °F | °C
As of 12:06 PM on Friday 19 Dec 2014 (Local Time) from KDHT Reporting Station
Haze Haze  
Wind Chill: 36°   Ceiling: Unl
Heat Index: 41°   Visibility: 6mi
Dew Point: 33°   Wind: 7mph
Humidity: 73%   Direction: NA
Pressure: 30.14"   Gusts: NA
Location:  36.5°N, 102.24°W
Report Text: KDHT 191806Z AUTO VRB06KT 6SM HZ SCT008 05/01 A3014 RMK AO2 T00500006
Loading
Personal Weather Stations






























Interactive Weather Map New forecast layout! Learn more

10-Day Weather Forecast

Advertisements
Track Severe Weather on mobile